createdAt,value
2022-09-14T00:04:29.955Z,22.8
2022-09-14T00:09:51.439Z,22.8
2022-09-14T00:15:13.058Z,22.8
2022-09-14T00:20:35.539Z,22.8
2022-09-14T00:25:55.556Z,22.7
2022-09-14T00:31:02.385Z,22.7
2022-09-14T00:36:40.854Z,22.8
2022-09-14T00:42:18.790Z,22.8
2022-09-14T00:47:56.716Z,22.7
2022-09-14T00:53:33.999Z,22.8
2022-09-14T00:59:10.660Z,22.8
2022-09-14T01:04:49.331Z,22.7
2022-09-14T01:10:11.177Z,22.7
2022-09-14T01:15:31.892Z,22.8
2022-09-14T01:20:38.087Z,22.7
2022-09-14T01:25:44.897Z,22.7
2022-09-14T01:31:06.427Z,22.7
2022-09-14T01:36:12.852Z,22.7
2022-09-14T01:41:34.629Z,22.6
2022-09-14T01:46:42.591Z,22.6
2022-09-14T01:51:48.669Z,22.6
2022-09-14T01:57:10.659Z,22.6
2022-09-14T02:02:34.050Z,22.6
2022-09-14T02:07:57.018Z,22.6
2022-09-14T02:13:34.774Z,22.6
2022-09-14T02:18:56.852Z,22.6
2022-09-14T02:24:34.071Z,22.6
2022-09-14T02:29:56.534Z,22.6
2022-09-14T02:35:19.018Z,22.6
2022-09-14T02:40:56.441Z,22.5
2022-09-14T02:46:33.700Z,22.6
2022-09-14T02:52:11.879Z,22.6
2022-09-14T02:57:47.959Z,22.6
2022-09-14T03:03:26.150Z,22.5
2022-09-14T03:09:04.404Z,22.5
2022-09-14T03:14:41.836Z,22.5
2022-09-14T03:20:20.459Z,22.5
2022-09-14T03:25:58.051Z,22.5
2022-09-14T03:31:19.689Z,22.5
2022-09-14T03:36:57.185Z,22.5
2022-09-14T03:42:36.086Z,22.5
2022-09-14T03:48:13.189Z,22.4
2022-09-14T03:53:56.394Z,22.4
2022-09-14T03:59:34.428Z,22.4
2022-09-14T04:05:11.872Z,22.4
2022-09-14T04:10:49.899Z,22.5
2022-09-14T04:16:11.408Z,22.4
2022-09-14T04:21:48.393Z,22.4
2022-09-14T04:28:10.225Z,22.4
2022-09-14T04:33:57.764Z,22.4
2022-09-14T04:39:34.726Z,22.4
2022-09-14T04:45:13.199Z,22.4
2022-09-14T04:50:54.926Z,22.4
2022-09-14T04:56:32.288Z,22.3
2022-09-14T05:02:12.105Z,22.4
2022-09-14T05:07:50.414Z,22.3
2022-09-14T05:13:27.834Z,22.3
2022-09-14T05:19:12.089Z,22.3
2022-09-14T05:24:49.129Z,22.3
2022-09-14T05:30:26.676Z,22.3
2022-09-14T05:36:04.929Z,22.4
2022-09-14T05:41:42.460Z,22.4
2022-09-14T05:47:20.576Z,22.4
2022-09-14T05:53:00.771Z,22.4
2022-09-14T05:58:38.331Z,22.4
2022-09-14T06:04:16.648Z,22.4
2022-09-14T06:10:22.588Z,22.4
2022-09-14T06:16:00.012Z,22.4
2022-09-14T06:21:44.137Z,22.4
2022-09-14T06:27:07.060Z,22.4
2022-09-14T06:32:30.217Z,22.4
2022-09-14T06:37:54.611Z,22.4
2022-09-14T06:43:18.068Z,22.4
2022-09-14T06:49:01.077Z,22.4
2022-09-14T06:54:38.999Z,22.4
2022-09-14T07:00:18.135Z,22.4
2022-09-14T07:05:59.317Z,22.4
2022-09-14T07:11:36.940Z,22.6
2022-09-14T07:17:02.871Z,22.5
2022-09-14T07:22:28.988Z,22.5
2022-09-14T07:28:06.128Z,22.6
2022-09-14T07:33:30.030Z,22.6
2022-09-14T07:39:17.507Z,22.6
2022-09-14T07:44:55.173Z,22.6
2022-09-14T07:50:33.873Z,22.6
2022-09-14T07:56:14.154Z,22.6
2022-09-14T08:02:40.934Z,22.6
2022-09-14T08:08:18.693Z,22.6
2022-09-14T08:13:56.819Z,22.6
2022-09-14T08:19:38.682Z,22.6
2022-09-14T08:25:22.749Z,22.6
2022-09-14T08:31:00.719Z,22.6
2022-09-14T08:36:46.408Z,22.6
2022-09-14T08:42:24.519Z,22.6
2022-09-14T08:48:02.983Z,22.6
2022-09-14T08:53:30.090Z,22.6
2022-09-14T08:59:01.514Z,22.6
2022-09-14T09:04:40.448Z,22.6
2022-09-14T09:10:21.995Z,22.7
2022-09-14T09:16:00.068Z,22.7
2022-09-14T09:21:42.528Z,22.6
2022-09-14T09:27:24.394Z,22.7
2022-09-14T09:32:37.945Z,22.7
2022-09-14T09:38:16.119Z,22.7
2022-09-14T09:44:18.842Z,22.7
2022-09-14T09:49:47.647Z,22.7
2022-09-14T09:55:24.697Z,22.7
2022-09-14T10:01:03.226Z,22.7
2022-09-14T10:06:41.823Z,22.7
2022-09-14T10:12:21.362Z,22.7
2022-09-14T10:18:04.719Z,22.7
2022-09-14T10:23:50.249Z,22.7
2022-09-14T10:29:33.286Z,22.7
2022-09-14T10:35:11.704Z,22.7
2022-09-14T10:40:50.702Z,22.7
2022-09-14T10:46:28.509Z,22.7
2022-09-14T10:52:07.126Z,22.8
2022-09-14T10:57:44.680Z,22.8
2022-09-14T11:03:10.279Z,22.7
2022-09-14T11:08:48.048Z,22.8
2022-09-14T11:14:30.636Z,22.7
2022-09-14T11:20:09.361Z,22.8
2022-09-14T11:25:47.085Z,22.8
2022-09-14T11:31:26.168Z,22.8
2022-09-14T11:37:23.859Z,22.8
2022-09-14T11:42:46.601Z,22.8
2022-09-14T11:48:57.651Z,22.8
2022-09-14T11:54:35.679Z,22.9
2022-09-14T12:00:14.042Z,22.8
2022-09-14T12:05:53.048Z,22.7
2022-09-14T12:11:35.072Z,22.8
2022-09-14T12:17:28.892Z,22.8
2022-09-14T12:23:14.061Z,22.8
2022-09-14T12:28:52.366Z,22.8
2022-09-14T12:34:34.160Z,22.9
2022-09-14T12:40:15.754Z,22.9
2022-09-14T12:45:57.693Z,22.8
2022-09-14T12:51:35.721Z,22.9
2022-09-14T12:57:13.624Z,22.9
2022-09-14T13:02:39.594Z,22.9
2022-09-14T13:08:17.460Z,22.8
2022-09-14T13:13:55.934Z,22.9
2022-09-14T13:19:18.827Z,22.9
2022-09-14T13:24:25.880Z,22.9
2022-09-14T13:29:48.708Z,22.9
2022-09-14T13:35:11.164Z,22.9
2022-09-14T13:40:05.408Z,22.9
2022-09-14T13:45:12.319Z,22.9
2022-09-14T13:50:19.436Z,22.9
2022-09-14T13:55:50.406Z,22.9
2022-09-14T14:00:56.589Z,22.9
2022-09-14T14:06:08.353Z,22.9
2022-09-14T14:11:31.187Z,22.9
2022-09-14T14:17:02.145Z,23
2022-09-14T14:22:09.645Z,23
2022-09-14T14:28:18.965Z,23
2022-09-14T14:33:42.045Z,23
2022-09-14T14:39:04.378Z,23
2022-09-14T14:44:32.158Z,23.1
2022-09-14T14:50:11.142Z,23.1
2022-09-14T14:55:34.301Z,23.1
2022-09-14T15:01:16.435Z,23.1
2022-09-14T15:06:54.586Z,23.1
2022-09-14T15:12:37.170Z,23.1
2022-09-14T15:18:20.030Z,23.1
2022-09-14T15:23:42.757Z,23.1
2022-09-14T15:29:20.623Z,23.1
2022-09-14T15:35:01.440Z,23.1
2022-09-14T15:40:40.015Z,23.1
2022-09-14T15:46:17.703Z,23.1
2022-09-14T15:52:01.501Z,23.2
2022-09-14T15:57:45.181Z,23.2
2022-09-14T16:03:07.797Z,23.2
2022-09-14T16:08:45.488Z,23.1
2022-09-14T16:14:28.678Z,23.1
2022-09-14T16:20:08.646Z,23.1
2022-09-14T16:25:31.258Z,23.2
2022-09-14T16:31:09.431Z,23.1
2022-09-14T16:36:48.481Z,23.1
2022-09-14T16:42:26.890Z,23.1
2022-09-14T16:48:05.459Z,23.2
2022-09-14T16:53:42.833Z,23.2
2022-09-14T16:59:22.661Z,23.2
2022-09-14T17:05:01.361Z,23.1
2022-09-14T17:10:41.320Z,23.2
2022-09-14T17:16:19.260Z,23.2
2022-09-14T17:21:58.203Z,23.2
2022-09-14T17:27:35.957Z,23.2
2022-09-14T17:33:19.043Z,23.3
2022-09-14T17:38:56.348Z,23.2
2022-09-14T17:44:33.996Z,23.3
2022-09-14T17:50:18.039Z,23.2
2022-09-14T17:55:55.598Z,23.3
2022-09-14T18:01:39.207Z,23.3
2022-09-14T18:07:02.634Z,23.3
2022-09-14T18:12:40.167Z,23.3
2022-09-14T18:18:18.373Z,23.3
2022-09-14T18:23:40.147Z,23.3
2022-09-14T18:28:47.667Z,23.4
2022-09-14T18:34:10.767Z,23.4
2022-09-14T18:39:50.181Z,23.3
2022-09-14T18:45:13.762Z,23.3
2022-09-14T18:50:39.180Z,23.4
2022-09-14T18:56:07.770Z,23.3
2022-09-14T19:01:30.627Z,23.3
2022-09-14T19:06:53.930Z,23.3
2022-09-14T19:12:32.252Z,23.3
2022-09-14T19:18:11.731Z,23.3
2022-09-14T19:24:11.446Z,23.4
2022-09-14T19:29:49.867Z,23.3
2022-09-14T19:35:29.231Z,23.4
2022-09-14T19:40:53.375Z,23.4
2022-09-14T19:46:35.187Z,23.3
2022-09-14T19:52:14.171Z,23.4
2022-09-14T19:57:52.566Z,23.4
2022-09-14T20:03:34.321Z,23.4
2022-09-14T20:09:16.755Z,23.4
2022-09-14T20:14:40.804Z,23.4
2022-09-14T20:19:48.949Z,23.4
2022-09-14T20:25:53.923Z,23.4
2022-09-14T20:31:31.538Z,23.4
2022-09-14T20:36:53.746Z,23.4
2022-09-14T20:42:16.795Z,23.4
2022-09-14T21:12:20.020Z,23.4
2022-09-14T21:17:59.319Z,23.4
2022-09-14T21:23:41.338Z,23.4
2022-09-14T21:29:03.277Z,23.4
2022-09-14T21:34:42.195Z,23.4
2022-09-14T21:40:03.461Z,23.4
2022-09-14T21:45:40.732Z,23.4
2022-09-14T21:51:20.589Z,23.4
2022-09-14T21:56:57.024Z,23.4
2022-09-14T22:02:33.777Z,23.4
2022-09-14T22:08:12.346Z,23.4
2022-09-14T22:13:52.706Z,23.4
2022-09-14T22:18:59.239Z,23.4
2022-09-14T22:24:22.388Z,23.4
2022-09-14T22:29:58.301Z,23.4
2022-09-14T22:35:39.162Z,23.4
2022-09-14T22:41:17.295Z,23.4
2022-09-14T22:46:54.145Z,23.4
2022-09-14T22:52:15.670Z,23.4
2022-09-14T22:57:53.604Z,23.4
2022-09-14T23:03:30.805Z,23.4
2022-09-14T23:08:52.598Z,23.4
2022-09-14T23:14:30.662Z,23.4
2022-09-14T23:20:07.997Z,23.3
2022-09-14T23:25:28.743Z,23.3
2022-09-14T23:30:51.437Z,23.4
2022-09-14T23:36:27.586Z,23.4
2022-09-14T23:42:05.165Z,23.3
2022-09-14T23:47:43.667Z,23.3
2022-09-14T23:53:04.400Z,23.3
2022-09-14T23:58:41.308Z,23.3
